sensor_id;sensor_type;location;lat;lon;timestamp;pressure;altitude;pressure_sealevel;temperature;humidity
54554;BME280;40450;55.848;-3.572;2023-04-24T00:01:03;98813.09;;;-3.30;96.65
54554;BME280;40450;55.848;-3.572;2023-04-24T00:03:33;98818.02;;;-1.76;93.81
54554;BME280;40450;55.848;-3.572;2023-04-24T00:06:04;98815.96;;;-2.14;94.21
54554;BME280;40450;55.848;-3.572;2023-04-24T00:08:34;98816.76;;;-1.22;92.04
54554;BME280;40450;55.848;-3.572;2023-04-24T00:11:04;98814.02;;;-0.94;91.83
54554;BME280;40450;55.848;-3.572;2023-04-24T00:13:35;98812.17;;;-0.68;90.43
54554;BME280;40450;55.848;-3.572;2023-04-24T00:16:05;98809.71;;;1.31;88.94
54554;BME280;40450;55.848;-3.572;2023-04-24T00:18:36;98807.24;;;-0.41;89.79
54554;BME280;40450;55.848;-3.572;2023-04-24T00:21:06;98802.82;;;1.96;84.42
54554;BME280;40450;55.848;-3.572;2023-04-24T00:23:37;98806.30;;;-0.33;87.15
54554;BME280;40450;55.848;-3.572;2023-04-24T00:26:07;98806.41;;;-0.39;89.53
54554;BME280;40450;55.848;-3.572;2023-04-24T00:28:37;98809.20;;;-0.43;88.58
54554;BME280;40450;55.848;-3.572;2023-04-24T00:31:08;98802.04;;;2.24;86.04
54554;BME280;40450;55.848;-3.572;2023-04-24T00:33:38;98807.34;;;0.54;84.93
54554;BME280;40450;55.848;-3.572;2023-04-24T00:36:09;98812.72;;;-0.10;88.33
54554;BME280;40450;55.848;-3.572;2023-04-24T00:38:40;98808.42;;;-0.54;87.67
54554;BME280;40450;55.848;-3.572;2023-04-24T00:41:10;98812.10;;;-1.73;90.61
54554;BME280;40450;55.848;-3.572;2023-04-24T00:43:40;98805.25;;;0.34;86.90
54554;BME280;40450;55.848;-3.572;2023-04-24T00:46:12;98809.16;;;0.64;85.06
54554;BME280;40450;55.848;-3.572;2023-04-24T00:48:42;98809.82;;;1.36;85.52
54554;BME280;40450;55.848;-3.572;2023-04-24T00:51:12;98810.31;;;3.31;82.46
54554;BME280;40450;55.848;-3.572;2023-04-24T00:53:43;98801.25;;;5.38;76.81
54554;BME280;40450;55.848;-3.572;2023-04-24T00:56:13;98806.08;;;3.73;78.16
54554;BME280;40450;55.848;-3.572;2023-04-24T00:58:44;98812.39;;;3.73;77.62
54554;BME280;40450;55.848;-3.572;2023-04-24T01:01:14;98810.44;;;2.76;78.52
54554;BME280;40450;55.848;-3.572;2023-04-24T01:03:44;98817.99;;;1.34;82.60
54554;BME280;40450;55.848;-3.572;2023-04-24T01:06:15;98820.28;;;3.28;78.41
54554;BME280;40450;55.848;-3.572;2023-04-24T01:08:46;98815.57;;;5.04;75.83
54554;BME280;40450;55.848;-3.572;2023-04-24T01:11:16;98815.57;;;5.64;75.12
54554;BME280;40450;55.848;-3.572;2023-04-24T01:13:47;98825.06;;;2.25;79.06
54554;BME280;40450;55.848;-3.572;2023-04-24T01:16:17;98823.53;;;3.19;78.45
54554;BME280;40450;55.848;-3.572;2023-04-24T01:18:47;98828.74;;;2.33;78.67
54554;BME280;40450;55.848;-3.572;2023-04-24T01:21:18;98830.22;;;3.84;77.85
54554;BME280;40450;55.848;-3.572;2023-04-24T01:23:48;98829.22;;;2.58;78.53
54554;BME280;40450;55.848;-3.572;2023-04-24T01:26:20;98831.35;;;-0.09;85.49
54554;BME280;40450;55.848;-3.572;2023-04-24T01:28:49;98838.28;;;-0.85;86.48
54554;BME280;40450;55.848;-3.572;2023-04-24T01:31:20;98836.45;;;-0.78;87.26
54554;BME280;40450;55.848;-3.572;2023-04-24T01:33:51;98849.16;;;-1.07;88.36
54554;BME280;40450;55.848;-3.572;2023-04-24T01:36:21;98849.40;;;-1.03;88.48
54554;BME280;40450;55.848;-3.572;2023-04-24T01:38:51;98843.93;;;0.40;86.37
54554;BME280;40450;55.848;-3.572;2023-04-24T01:41:22;98846.54;;;-0.37;86.97
54554;BME280;40450;55.848;-3.572;2023-04-24T01:43:52;98848.12;;;0.22;85.00
54554;BME280;40450;55.848;-3.572;2023-04-24T01:46:23;98855.57;;;-0.32;86.68
54554;BME280;40450;55.848;-3.572;2023-04-24T01:48:53;98865.05;;;-1.06;88.95
54554;BME280;40450;55.848;-3.572;2023-04-24T01:51:23;98855.24;;;0.14;87.17
54554;BME280;40450;55.848;-3.572;2023-04-24T01:53:54;98858.08;;;0.36;86.40
54554;BME280;40450;55.848;-3.572;2023-04-24T01:56:24;98863.69;;;-0.52;87.32
54554;BME280;40450;55.848;-3.572;2023-04-24T01:58:55;98865.67;;;-1.02;88.62
54554;BME280;40450;55.848;-3.572;2023-04-24T02:01:25;98870.71;;;-1.61;90.26
54554;BME280;40450;55.848;-3.572;2023-04-24T02:03:56;98864.27;;;-0.04;87.10
54554;BME280;40450;55.848;-3.572;2023-04-24T02:06:26;98862.47;;;1.39;84.51
54554;BME280;40450;55.848;-3.572;2023-04-24T02:08:57;98869.77;;;-1.95;90.17
54554;BME280;40450;55.848;-3.572;2023-04-24T02:11:27;98864.39;;;0.52;85.78
54554;BME280;40450;55.848;-3.572;2023-04-24T02:13:58;98865.20;;;0.27;85.30
54554;BME280;40450;55.848;-3.572;2023-04-24T02:16:28;98874.23;;;-0.91;86.97
54554;BME280;40450;55.848;-3.572;2023-04-24T02:18:59;98876.77;;;-0.97;87.62
54554;BME280;40450;55.848;-3.572;2023-04-24T02:21:29;98875.34;;;-0.83;88.31
54554;BME280;40450;55.848;-3.572;2023-04-24T02:24:00;98878.29;;;-1.16;89.09
54554;BME280;40450;55.848;-3.572;2023-04-24T02:26:30;98879.28;;;-2.04;89.90
54554;BME280;40450;55.848;-3.572;2023-04-24T02:29:00;98872.65;;;-0.14;86.14
54554;BME280;40450;55.848;-3.572;2023-04-24T02:31:31;98873.07;;;0.37;84.69
54554;BME280;40450;55.848;-3.572;2023-04-24T02:34:01;98880.34;;;-0.81;87.56
54554;BME280;40450;55.848;-3.572;2023-04-24T02:36:31;98882.34;;;-1.84;89.80
54554;BME280;40450;55.848;-3.572;2023-04-24T02:39:02;98872.27;;;0.23;86.20
54554;BME280;40450;55.848;-3.572;2023-04-24T02:41:32;98872.30;;;2.07;82.09
54554;BME280;40450;55.848;-3.572;2023-04-24T02:44:03;98874.80;;;-0.32;85.98
54554;BME280;40450;55.848;-3.572;2023-04-24T02:46:33;98871.52;;;0.02;85.04
54554;BME280;40450;55.848;-3.572;2023-04-24T02:49:04;98871.21;;;0.27;85.25
54554;BME280;40450;55.848;-3.572;2023-04-24T02:51:34;98875.12;;;-0.77;86.71
54554;BME280;40450;55.848;-3.572;2023-04-24T02:54:05;98878.81;;;-3.11;91.75
54554;BME280;40450;55.848;-3.572;2023-04-24T02:56:35;98879.68;;;-4.22;94.40
54554;BME280;40450;55.848;-3.572;2023-04-24T02:59:06;98881.97;;;-5.19;96.56
54554;BME280;40450;55.848;-3.572;2023-04-24T03:01:36;98886.63;;;-5.01;96.70
54554;BME280;40450;55.848;-3.572;2023-04-24T03:04:07;98887.93;;;-4.84;97.24
54554;BME280;40450;55.848;-3.572;2023-04-24T03:06:37;98886.62;;;-4.97;96.01
54554;BME280;40450;55.848;-3.572;2023-04-24T03:09:08;98882.49;;;-3.66;94.39
54554;BME280;40450;55.848;-3.572;2023-04-24T03:11:38;98886.80;;;-4.55;95.14
54554;BME280;40450;55.848;-3.572;2023-04-24T03:14:08;98884.69;;;-5.16;96.43
54554;BME280;40450;55.848;-3.572;2023-04-24T03:16:39;98885.09;;;-4.60;94.80
54554;BME280;40450;55.848;-3.572;2023-04-24T03:19:10;98882.89;;;-4.09;94.36
54554;BME280;40450;55.848;-3.572;2023-04-24T03:21:40;98887.28;;;-5.00;96.35
54554;BME280;40450;55.848;-3.572;2023-04-24T03:24:10;98889.81;;;-5.07;96.59
54554;BME280;40450;55.848;-3.572;2023-04-24T03:26:41;98885.64;;;-3.01;92.36
54554;BME280;40450;55.848;-3.572;2023-04-24T03:29:11;98889.32;;;-3.32;92.68
54554;BME280;40450;55.848;-3.572;2023-04-24T03:31:42;98892.66;;;-4.20;93.48
54554;BME280;40450;55.848;-3.572;2023-04-24T03:34:12;98897.01;;;-3.71;92.78
54554;BME280;40450;55.848;-3.572;2023-04-24T03:36:43;98896.85;;;-3.39;92.28
54554;BME280;40450;55.848;-3.572;2023-04-24T03:39:14;98898.67;;;-3.75;93.47
54554;BME280;40450;55.848;-3.572;2023-04-24T03:41:44;98896.35;;;-1.98;89.46
54554;BME280;40450;55.848;-3.572;2023-04-24T03:44:15;98892.52;;;-0.49;86.60
54554;BME280;40450;55.848;-3.572;2023-04-24T03:46:45;98889.12;;;0.94;85.96
54554;BME280;40450;55.848;-3.572;2023-04-24T03:49:16;98893.13;;;1.76;81.91
54554;BME280;40450;55.848;-3.572;2023-04-24T03:51:46;98892.15;;;3.22;83.07
54554;BME280;40450;55.848;-3.572;2023-04-24T03:54:17;98897.42;;;4.21;76.84
54554;BME280;40450;55.848;-3.572;2023-04-24T03:56:47;98902.68;;;4.13;75.82
54554;BME280;40450;55.848;-3.572;2023-04-24T03:59:18;98907.25;;;2.05;79.38
54554;BME280;40450;55.848;-3.572;2023-04-24T04:01:48;98902.99;;;4.40;76.74
54554;BME280;40450;55.848;-3.572;2023-04-24T04:04:19;98896.74;;;5.46;75.47
54554;BME280;40450;55.848;-3.572;2023-04-24T04:06:49;98892.70;;;6.24;74.85
54554;BME280;40450;55.848;-3.572;2023-04-24T04:09:19;98894.96;;;6.98;73.49
54554;BME280;40450;55.848;-3.572;2023-04-24T04:11:50;98897.69;;;6.55;68.59
54554;BME280;40450;55.848;-3.572;2023-04-24T04:14:21;98900.47;;;5.60;71.38
54554;BME280;40450;55.848;-3.572;2023-04-24T04:16:51;98906.48;;;5.44;69.31
54554;BME280;40450;55.848;-3.572;2023-04-24T04:19:21;98907.22;;;5.64;69.97
54554;BME280;40450;55.848;-3.572;2023-04-24T04:21:52;98914.80;;;4.64;71.03
54554;BME280;40450;55.848;-3.572;2023-04-24T04:24:23;98909.70;;;4.50;72.02
54554;BME280;40450;55.848;-3.572;2023-04-24T04:26:53;98907.60;;;2.57;73.53
54554;BME280;40450;55.848;-3.572;2023-04-24T04:29:23;98915.14;;;-0.02;81.23
54554;BME280;40450;55.848;-3.572;2023-04-24T04:31:54;98921.01;;;-0.33;81.73
54554;BME280;40450;55.848;-3.572;2023-04-24T04:34:25;98924.50;;;-0.89;84.08
54554;BME280;40450;55.848;-3.572;2023-04-24T04:36:55;98929.99;;;-3.52;89.58
54554;BME280;40450;55.848;-3.572;2023-04-24T04:39:25;98922.36;;;-2.44;87.59
54554;BME280;40450;55.848;-3.572;2023-04-24T04:41:56;98929.27;;;-0.57;84.72
54554;BME280;40450;55.848;-3.572;2023-04-24T04:44:26;98932.45;;;-2.09;86.22
54554;BME280;40450;55.848;-3.572;2023-04-24T04:46:57;98932.58;;;-2.32;86.98
54554;BME280;40450;55.848;-3.572;2023-04-24T04:49:27;98936.49;;;-1.05;85.11
54554;BME280;40450;55.848;-3.572;2023-04-24T04:51:57;98939.66;;;-2.15;86.70
54554;BME280;40450;55.848;-3.572;2023-04-24T04:54:28;98942.59;;;-0.63;84.84
54554;BME280;40450;55.848;-3.572;2023-04-24T04:56:59;98944.63;;;-1.08;85.69
54554;BME280;40450;55.848;-3.572;2023-04-24T04:59:29;98944.40;;;-2.47;86.64
54554;BME280;40450;55.848;-3.572;2023-04-24T05:02:00;98940.29;;;-2.45;88.01
54554;BME280;40450;55.848;-3.572;2023-04-24T05:04:30;98941.68;;;-2.16;87.40
54554;BME280;40450;55.848;-3.572;2023-04-24T05:07:01;98949.34;;;-2.44;87.69
54554;BME280;40450;55.848;-3.572;2023-04-24T05:09:31;98955.27;;;-0.79;84.39
54554;BME280;40450;55.848;-3.572;2023-04-24T05:12:02;98954.36;;;0.32;82.15
54554;BME280;40450;55.848;-3.572;2023-04-24T05:14:32;98950.27;;;1.08;81.74
54554;BME280;40450;55.848;-3.572;2023-04-24T05:17:03;98955.16;;;1.83;79.75
54554;BME280;40450;55.848;-3.572;2023-04-24T05:19:33;98951.13;;;4.37;78.26
54554;BME280;40450;55.848;-3.572;2023-04-24T05:22:04;98952.59;;;3.95;72.55
54554;BME280;40450;55.848;-3.572;2023-04-24T05:24:34;98962.99;;;5.29;72.60
54554;BME280;40450;55.848;-3.572;2023-04-24T05:27:05;98961.02;;;3.68;71.78
54554;BME280;40450;55.848;-3.572;2023-04-24T05:29:35;98957.41;;;6.15;71.69
54554;BME280;40450;55.848;-3.572;2023-04-24T05:32:06;98968.04;;;4.10;71.12
54554;BME280;40450;55.848;-3.572;2023-04-24T05:34:36;98968.53;;;3.98;71.50
54554;BME280;40450;55.848;-3.572;2023-04-24T05:37:06;98974.09;;;3.15;72.77
54554;BME280;40450;55.848;-3.572;2023-04-24T05:39:37;98976.98;;;3.19;72.03
54554;BME280;40450;55.848;-3.572;2023-04-24T05:42:07;98981.07;;;1.90;75.47
54554;BME280;40450;55.848;-3.572;2023-04-24T05:44:37;98977.75;;;3.21;72.56
54554;BME280;40450;55.848;-3.572;2023-04-24T05:47:08;98972.96;;;5.94;71.03
54554;BME280;40450;55.848;-3.572;2023-04-24T05:49:38;98969.61;;;7.26;68.02
54554;BME280;40450;55.848;-3.572;2023-04-24T05:52:09;98969.59;;;7.86;68.55
54554;BME280;40450;55.848;-3.572;2023-04-24T05:54:39;98972.75;;;8.38;66.13
54554;BME280;40450;55.848;-3.572;2023-04-24T05:57:10;98970.86;;;8.89;65.67
54554;BME280;40450;55.848;-3.572;2023-04-24T05:59:40;98972.64;;;8.49;63.64
54554;BME280;40450;55.848;-3.572;2023-04-24T06:02:11;98971.25;;;9.28;62.71
54554;BME280;40450;55.848;-3.572;2023-04-24T06:04:41;98974.15;;;9.57;62.47
54554;BME280;40450;55.848;-3.572;2023-04-24T06:07:12;98978.64;;;9.74;60.29
54554;BME280;40450;55.848;-3.572;2023-04-24T06:09:42;98982.35;;;9.62;60.62
54554;BME280;40450;55.848;-3.572;2023-04-24T06:12:12;98981.89;;;8.51;60.75
54554;BME280;40450;55.848;-3.572;2023-04-24T06:14:43;98983.97;;;9.52;58.20
54554;BME280;40450;55.848;-3.572;2023-04-24T06:17:14;98989.68;;;7.60;59.32
54554;BME280;40450;55.848;-3.572;2023-04-24T06:19:44;98992.85;;;6.23;62.15
54554;BME280;40450;55.848;-3.572;2023-04-24T06:22:14;99004.28;;;2.41;71.97
54554;BME280;40450;55.848;-3.572;2023-04-24T06:24:45;99003.38;;;2.39;73.29
54554;BME280;40450;55.848;-3.572;2023-04-24T06:27:15;99007.67;;;1.91;76.02
54554;BME280;40450;55.848;-3.572;2023-04-24T06:29:46;99015.43;;;-3.49;88.87
54554;BME280;40450;55.848;-3.572;2023-04-24T06:32:16;99004.29;;;-1.49;84.83
54554;BME280;40450;55.848;-3.572;2023-04-24T06:34:46;99001.45;;;0.31;80.77
54554;BME280;40450;55.848;-3.572;2023-04-24T06:37:17;99013.11;;;-2.43;87.19
54554;BME280;40450;55.848;-3.572;2023-04-24T06:39:47;99014.84;;;-1.49;86.82
54554;BME280;40450;55.848;-3.572;2023-04-24T06:42:17;99021.36;;;-2.89;89.28
54554;BME280;40450;55.848;-3.572;2023-04-24T06:44:48;99028.32;;;-3.72;90.32
54554;BME280;40450;55.848;-3.572;2023-04-24T06:47:19;99034.52;;;-4.77;93.25
54554;BME280;40450;55.848;-3.572;2023-04-24T06:49:49;99036.54;;;-3.03;89.82
54554;BME280;40450;55.848;-3.572;2023-04-24T06:52:19;99038.07;;;-3.35;90.36
54554;BME280;40450;55.848;-3.572;2023-04-24T06:54:50;99048.99;;;-5.14;93.51
54554;BME280;40450;55.848;-3.572;2023-04-24T06:57:20;99039.04;;;-4.25;92.17
54554;BME280;40450;55.848;-3.572;2023-04-24T06:59:51;99038.31;;;-1.64;87.92
54554;BME280;40450;55.848;-3.572;2023-04-24T07:02:21;99039.93;;;-4.22;92.20
54554;BME280;40450;55.848;-3.572;2023-04-24T07:04:52;99038.32;;;-3.80;91.02
54554;BME280;40450;55.848;-3.572;2023-04-24T07:07:22;99041.60;;;-3.13;89.68
54554;BME280;40450;55.848;-3.572;2023-04-24T07:09:53;99045.74;;;-3.49;89.48
54554;BME280;40450;55.848;-3.572;2023-04-24T07:12:23;99045.72;;;-4.18;91.69
54554;BME280;40450;55.848;-3.572;2023-04-24T07:14:54;99050.60;;;-3.27;90.09
54554;BME280;40450;55.848;-3.572;2023-04-24T07:17:24;99053.65;;;-4.62;91.44
54554;BME280;40450;55.848;-3.572;2023-04-24T07:19:54;99057.21;;;-4.35;92.00
54554;BME280;40450;55.848;-3.572;2023-04-24T07:22:25;99058.56;;;-4.65;93.36
54554;BME280;40450;55.848;-3.572;2023-04-24T07:24:55;99057.68;;;-4.11;91.92
54554;BME280;40450;55.848;-3.572;2023-04-24T07:27:26;99066.50;;;-4.98;93.37
54554;BME280;40450;55.848;-3.572;2023-04-24T07:29:56;99067.30;;;-6.02;94.63
54554;BME280;40450;55.848;-3.572;2023-04-24T07:32:27;99066.45;;;-5.65;94.99
54554;BME280;40450;55.848;-3.572;2023-04-24T07:34:58;99065.41;;;-4.86;95.33
54554;BME280;40450;55.848;-3.572;2023-04-24T07:37:28;99055.83;;;-3.99;91.55
54554;BME280;40450;55.848;-3.572;2023-04-24T07:39:58;99059.24;;;-4.18;92.56
54554;BME280;40450;55.848;-3.572;2023-04-24T07:42:29;99070.86;;;-4.84;93.20
54554;BME280;40450;55.848;-3.572;2023-04-24T07:44:59;99065.12;;;-3.43;91.71
54554;BME280;40450;55.848;-3.572;2023-04-24T07:47:30;99066.32;;;-4.47;92.51
54554;BME280;40450;55.848;-3.572;2023-04-24T07:50:00;99071.96;;;-5.13;94.08
54554;BME280;40450;55.848;-3.572;2023-04-24T07:52:31;99072.24;;;-4.66;93.44
54554;BME280;40450;55.848;-3.572;2023-04-24T07:55:01;99074.46;;;-3.43;92.44
54554;BME280;40450;55.848;-3.572;2023-04-24T07:57:37;99071.94;;;-2.81;90.86
54554;BME280;40450;55.848;-3.572;2023-04-24T08:00:04;99076.18;;;-2.31;88.65
54554;BME280;40450;55.848;-3.572;2023-04-24T08:02:32;99084.28;;;-3.71;91.53
54554;BME280;40450;55.848;-3.572;2023-04-24T08:05:03;99083.14;;;-3.95;92.66
54554;BME280;40450;55.848;-3.572;2023-04-24T08:07:33;99090.39;;;-4.02;92.95
54554;BME280;40450;55.848;-3.572;2023-04-24T08:10:05;99092.69;;;-4.55;94.07
54554;BME280;40450;55.848;-3.572;2023-04-24T08:12:34;99089.52;;;-3.23;93.49
54554;BME280;40450;55.848;-3.572;2023-04-24T08:15:05;99088.85;;;-3.97;92.50
54554;BME280;40450;55.848;-3.572;2023-04-24T08:17:35;99092.77;;;-3.31;91.89
54554;BME280;40450;55.848;-3.572;2023-04-24T08:20:06;99093.22;;;-3.21;90.72
54554;BME280;40450;55.848;-3.572;2023-04-24T08:22:36;99093.66;;;-2.78;90.66
54554;BME280;40450;55.848;-3.572;2023-04-24T08:25:07;99094.18;;;-4.44;92.70
54554;BME280;40450;55.848;-3.572;2023-04-24T08:27:36;99091.12;;;-2.49;89.74
54554;BME280;40450;55.848;-3.572;2023-04-24T08:30:07;99092.98;;;-1.59;86.78
54554;BME280;40450;55.848;-3.572;2023-04-24T08:32:37;99099.81;;;-2.69;88.15
54554;BME280;40450;55.848;-3.572;2023-04-24T08:35:08;99103.95;;;-3.49;91.33
54554;BME280;40450;55.848;-3.572;2023-04-24T08:37:39;99106.20;;;-1.99;87.67
54554;BME280;40450;55.848;-3.572;2023-04-24T08:40:13;99107.08;;;-2.37;88.87
54554;BME280;40450;55.848;-3.572;2023-04-24T08:42:39;99108.53;;;-3.14;89.69
54554;BME280;40450;55.848;-3.572;2023-04-24T08:45:10;99109.79;;;-2.27;89.73
54554;BME280;40450;55.848;-3.572;2023-04-24T08:47:40;99112.85;;;-3.52;90.84
54554;BME280;40450;55.848;-3.572;2023-04-24T08:50:11;99117.54;;;-3.07;90.29
54554;BME280;40450;55.848;-3.572;2023-04-24T08:52:40;99124.17;;;-3.35;90.78
54554;BME280;40450;55.848;-3.572;2023-04-24T08:55:10;99124.01;;;-2.37;88.14
54554;BME280;40450;55.848;-3.572;2023-04-24T08:57:41;99119.65;;;-1.18;87.01
54554;BME280;40450;55.848;-3.572;2023-04-24T09:00:17;99119.82;;;-2.18;86.80
54554;BME280;40450;55.848;-3.572;2023-04-24T09:02:42;99119.05;;;-2.13;88.37
54554;BME280;40450;55.848;-3.572;2023-04-24T09:05:13;99114.46;;;-0.69;84.82
54554;BME280;40450;55.848;-3.572;2023-04-24T09:07:45;99118.07;;;-1.56;86.00
54554;BME280;40450;55.848;-3.572;2023-04-24T09:10:13;99122.52;;;-1.81;85.85
54554;BME280;40450;55.848;-3.572;2023-04-24T09:12:44;99110.83;;;-3.21;88.91
54554;BME280;40450;55.848;-3.572;2023-04-24T09:15:14;99117.33;;;-3.54;90.55
54554;BME280;40450;55.848;-3.572;2023-04-24T09:17:44;99120.09;;;-2.13;88.63
54554;BME280;40450;55.848;-3.572;2023-04-24T09:20:15;99117.78;;;-1.12;85.50
54554;BME280;40450;55.848;-3.572;2023-04-24T09:22:45;99121.58;;;-0.89;84.14
54554;BME280;40450;55.848;-3.572;2023-04-24T09:25:16;99123.03;;;-0.84;84.00
54554;BME280;40450;55.848;-3.572;2023-04-24T09:27:46;99128.39;;;-1.88;86.34
54554;BME280;40450;55.848;-3.572;2023-04-24T09:30:21;99122.96;;;-0.82;85.71
54554;BME280;40450;55.848;-3.572;2023-04-24T09:32:47;99130.47;;;-1.68;87.18
54554;BME280;40450;55.848;-3.572;2023-04-24T09:35:17;99137.25;;;-0.71;83.71
54554;BME280;40450;55.848;-3.572;2023-04-24T09:37:48;99138.09;;;-1.95;87.16
54554;BME280;40450;55.848;-3.572;2023-04-24T09:40:20;99143.87;;;-3.25;91.91
54554;BME280;40450;55.848;-3.572;2023-04-24T09:42:53;99142.89;;;-2.74;91.65
54554;BME280;40450;55.848;-3.572;2023-04-24T09:45:20;99138.96;;;-1.94;90.94
54554;BME280;40450;55.848;-3.572;2023-04-24T09:47:52;99139.76;;;-2.09;91.12
54554;BME280;40450;55.848;-3.572;2023-04-24T09:50:22;99137.09;;;-2.93;91.07
54554;BME280;40450;55.848;-3.572;2023-04-24T09:52:57;99136.71;;;-2.85;91.85
54554;BME280;40450;55.848;-3.572;2023-04-24T09:55:21;99137.00;;;-1.76;90.28
54554;BME280;40450;55.848;-3.572;2023-04-24T09:57:59;99138.36;;;-0.77;87.77
54554;BME280;40450;55.848;-3.572;2023-04-24T10:00:23;99143.05;;;0.54;84.58
54554;BME280;40450;55.848;-3.572;2023-04-24T10:02:57;99146.89;;;-0.02;85.45
54554;BME280;40450;55.848;-3.572;2023-04-24T10:05:25;99145.27;;;-0.33;84.10
54554;BME280;40450;55.848;-3.572;2023-04-24T10:07:57;99143.62;;;-0.54;85.77
54554;BME280;40450;55.848;-3.572;2023-04-24T10:10:23;99154.34;;;-1.60;86.86
54554;BME280;40450;55.848;-3.572;2023-04-24T10:12:54;99153.52;;;-0.54;85.61
54554;BME280;40450;55.848;-3.572;2023-04-24T10:15:26;99153.62;;;0.48;83.12
54554;BME280;40450;55.848;-3.572;2023-04-24T10:17:55;99165.11;;;-2.16;87.99
54554;BME280;40450;55.848;-3.572;2023-04-24T10:20:27;99167.67;;;-2.88;89.63
54554;BME280;40450;55.848;-3.572;2023-04-24T10:22:56;99173.09;;;-2.45;92.18
54554;BME280;40450;55.848;-3.572;2023-04-24T10:25:28;99175.48;;;-2.91;92.53
54554;BME280;40450;55.848;-3.572;2023-04-24T10:27:57;99180.38;;;-2.96;93.45
54554;BME280;40450;55.848;-3.572;2023-04-24T10:30:28;99170.65;;;-0.95;90.89
54554;BME280;40450;55.848;-3.572;2023-04-24T10:32:57;99170.27;;;0.77;87.23
54554;BME280;40450;55.848;-3.572;2023-04-24T10:35:30;99174.65;;;-0.73;87.14
54554;BME280;40450;55.848;-3.572;2023-04-24T10:38:01;99173.84;;;0.18;87.24
54554;BME280;40450;55.848;-3.572;2023-04-24T10:40:31;99176.48;;;0.47;86.55
54554;BME280;40450;55.848;-3.572;2023-04-24T10:42:59;99176.35;;;0.33;85.84
54554;BME280;40450;55.848;-3.572;2023-04-24T10:45:29;99176.49;;;-0.50;86.65
54554;BME280;40450;55.848;-3.572;2023-04-24T10:48:02;99182.16;;;-0.92;86.96
54554;BME280;40450;55.848;-3.572;2023-04-24T10:50:42;99173.87;;;-0.81;88.25
54554;BME280;40450;55.848;-3.572;2023-04-24T10:53:05;99176.06;;;1.28;84.86
54554;BME280;40450;55.848;-3.572;2023-04-24T10:55:39;99174.30;;;1.88;80.90
54554;BME280;40450;55.848;-3.572;2023-04-24T10:58:02;99165.39;;;3.91;79.68
54554;BME280;40450;55.848;-3.572;2023-04-24T11:00:32;99162.60;;;5.18;77.22
54554;BME280;40450;55.848;-3.572;2023-04-24T11:03:04;99167.46;;;2.79;81.69
54554;BME280;40450;55.848;-3.572;2023-04-24T11:08:11;99170.02;;;5.17;78.94
54554;BME280;40450;55.848;-3.572;2023-04-24T11:10:34;99172.77;;;2.32;82.04
54554;BME280;40450;55.848;-3.572;2023-04-24T11:13:04;99174.25;;;2.70;81.66
54554;BME280;40450;55.848;-3.572;2023-04-24T11:15:35;99180.62;;;-0.17;84.76
54554;BME280;40450;55.848;-3.572;2023-04-24T11:18:07;99186.91;;;-0.76;90.37
54554;BME280;40450;55.848;-3.572;2023-04-24T11:20:35;99193.19;;;-2.29;95.11
54554;BME280;40450;55.848;-3.572;2023-04-24T11:23:06;99203.82;;;-2.44;96.55
54554;BME280;40450;55.848;-3.572;2023-04-24T11:25:36;99203.15;;;-0.80;94.42
54554;BME280;40450;55.848;-3.572;2023-04-24T11:28:06;99200.95;;;-0.39;94.85
54554;BME280;40450;55.848;-3.572;2023-04-24T11:30:40;99203.36;;;-0.66;95.47
54554;BME280;40450;55.848;-3.572;2023-04-24T11:33:07;99204.63;;;1.67;91.13
54554;BME280;40450;55.848;-3.572;2023-04-24T11:35:40;99206.31;;;0.94;92.51
54554;BME280;40450;55.848;-3.572;2023-04-24T11:38:10;99205.19;;;2.32;88.89
54554;BME280;40450;55.848;-3.572;2023-04-24T11:40:39;99204.06;;;3.60;84.96
54554;BME280;40450;55.848;-3.572;2023-04-24T11:43:09;99204.24;;;2.67;87.21
54554;BME280;40450;55.848;-3.572;2023-04-24T11:45:47;99217.66;;;1.56;92.62
54554;BME280;40450;55.848;-3.572;2023-04-24T11:48:10;99218.60;;;1.20;92.28
54554;BME280;40450;55.848;-3.572;2023-04-24T11:50:46;99215.71;;;4.30;85.83
54554;BME280;40450;55.848;-3.572;2023-04-24T11:53:11;99210.98;;;4.95;84.59
54554;BME280;40450;55.848;-3.572;2023-04-24T11:55:41;99207.57;;;5.99;80.67
54554;BME280;40450;55.848;-3.572;2023-04-24T11:58:11;99210.50;;;5.25;83.00
54554;BME280;40450;55.848;-3.572;2023-04-24T12:00:42;99202.42;;;7.70;78.84
54554;BME280;40450;55.848;-3.572;2023-04-24T12:03:12;99195.06;;;8.60;74.89
54554;BME280;40450;55.848;-3.572;2023-04-24T12:05:43;99201.70;;;4.72;79.47
54554;BME280;40450;55.848;-3.572;2023-04-24T12:10:43;99191.92;;;8.63;77.47
54554;BME280;40450;55.848;-3.572;2023-04-24T12:13:14;99205.90;;;6.79;76.71
54554;BME280;40450;55.848;-3.572;2023-04-24T12:15:44;99211.03;;;3.48;84.67
54554;BME280;40450;55.848;-3.572;2023-04-24T12:18:15;99204.76;;;7.23;76.77
54554;BME280;40450;55.848;-3.572;2023-04-24T12:20:45;99204.65;;;7.61;74.46
54554;BME280;40450;55.848;-3.572;2023-04-24T12:23:16;99216.57;;;5.91;77.20
54554;BME280;40450;55.848;-3.572;2023-04-24T12:25:46;99249.77;;;2.43;89.25
54554;BME280;40450;55.848;-3.572;2023-04-24T12:28:16;99265.59;;;-0.14;95.95
54554;BME280;40450;55.848;-3.572;2023-04-24T12:30:47;99264.99;;;1.62;93.54
54554;BME280;40450;55.848;-3.572;2023-04-24T12:33:17;99260.09;;;2.36;90.91
54554;BME280;40450;55.848;-3.572;2023-04-24T12:35:48;99262.97;;;-0.02;94.58
54554;BME280;40450;55.848;-3.572;2023-04-24T12:38:22;99262.70;;;2.25;91.83
54554;BME280;40450;55.848;-3.572;2023-04-24T12:43:19;99260.30;;;1.70;94.67
54554;BME280;40450;55.848;-3.572;2023-04-24T12:45:49;99267.72;;;-1.41;99.04
54554;BME280;40450;55.848;-3.572;2023-04-24T12:48:25;99284.98;;;-0.48;98.82
54554;BME280;40450;55.848;-3.572;2023-04-24T12:50:50;99290.29;;;-0.49;98.74
54554;BME280;40450;55.848;-3.572;2023-04-24T12:53:21;99289.30;;;0.91;95.54
54554;BME280;40450;55.848;-3.572;2023-04-24T12:55:51;99287.80;;;0.12;96.93
54554;BME280;40450;55.848;-3.572;2023-04-24T12:58:21;99283.46;;;0.40;97.18
54554;BME280;40450;55.848;-3.572;2023-04-24T13:00:52;99285.89;;;-1.03;96.90
54554;BME280;40450;55.848;-3.572;2023-04-24T13:03:22;99281.80;;;1.39;92.96
54554;BME280;40450;55.848;-3.572;2023-04-24T13:05:53;99281.08;;;1.80;93.20
54554;BME280;40450;55.848;-3.572;2023-04-24T13:08:23;99264.24;;;2.99;85.69
54554;BME280;40450;55.848;-3.572;2023-04-24T13:10:53;99257.71;;;2.96;87.25
54554;BME280;40450;55.848;-3.572;2023-04-24T13:13:24;99258.02;;;2.14;88.23
54554;BME280;40450;55.848;-3.572;2023-04-24T13:15:54;99252.13;;;2.04;87.02
54554;BME280;40450;55.848;-3.572;2023-04-24T13:18:25;99247.67;;;2.40;86.54